sensor_id;sensor_type;location;lat;lon;timestamp;P1;durP1;ratioP1;P2;durP2;ratioP2
9948;SDS011;5013;51.840;8.276;2023-01-08T00:01:04;3.20;;;3.00;;
9948;SDS011;5013;51.840;8.276;2023-01-08T00:03:34;4.00;;;3.33;;
9948;SDS011;5013;51.840;8.276;2023-01-08T00:06:01;3.80;;;3.60;;
9948;SDS011;5013;51.840;8.276;2023-01-08T00:08:28;3.60;;;3.30;;
9948;SDS011;5013;51.840;8.276;2023-01-08T00:10:55;3.40;;;3.20;;
9948;SDS011;5013;51.840;8.276;2023-01-08T00:13:21;3.37;;;3.17;;
9948;SDS011;5013;51.840;8.276;2023-01-08T00:15:47;3.73;;;3.53;;
9948;SDS011;5013;51.840;8.276;2023-01-08T00:18:12;3.97;;;3.60;;
9948;SDS011;5013;51.840;8.276;2023-01-08T00:20:42;3.50;;;3.30;;
9948;SDS011;5013;51.840;8.276;2023-01-08T00:23:11;3.77;;;3.47;;
9948;SDS011;5013;51.840;8.276;2023-01-08T00:25:41;3.53;;;3.20;;
9948;SDS011;5013;51.840;8.276;2023-01-08T00:28:07;3.70;;;3.40;;
9948;SDS011;5013;51.840;8.276;2023-01-08T00:30:33;3.63;;;3.33;;
9948;SDS011;5013;51.840;8.276;2023-01-08T00:32:59;3.73;;;3.20;;
9948;SDS011;5013;51.840;8.276;2023-01-08T00:35:25;3.73;;;3.47;;
9948;SDS011;5013;51.840;8.276;2023-01-08T00:37:51;3.63;;;3.43;;
9948;SDS011;5013;51.840;8.276;2023-01-08T00:40:16;3.40;;;3.20;;
9948;SDS011;5013;51.840;8.276;2023-01-08T00:42:42;4.00;;;3.63;;
9948;SDS011;5013;51.840;8.276;2023-01-08T00:45:08;3.30;;;3.17;;
9948;SDS011;5013;51.840;8.276;2023-01-08T00:47:34;3.80;;;3.50;;
9948;SDS011;5013;51.840;8.276;2023-01-08T00:49:59;3.43;;;3.23;;
9948;SDS011;5013;51.840;8.276;2023-01-08T00:52:25;3.33;;;3.20;;
9948;SDS011;5013;51.840;8.276;2023-01-08T00:54:51;3.97;;;3.60;;
9948;SDS011;5013;51.840;8.276;2023-01-08T00:57:16;5.83;;;3.27;;
9948;SDS011;5013;51.840;8.276;2023-01-08T00:59:42;3.30;;;3.10;;
9948;SDS011;5013;51.840;8.276;2023-01-08T01:02:07;3.60;;;3.40;;
9948;SDS011;5013;51.840;8.276;2023-01-08T01:04:33;4.07;;;3.73;;
9948;SDS011;5013;51.840;8.276;2023-01-08T01:06:59;3.60;;;3.30;;
9948;SDS011;5013;51.840;8.276;2023-01-08T01:09:25;3.57;;;3.37;;
9948;SDS011;5013;51.840;8.276;2023-01-08T01:11:50;3.63;;;3.33;;
9948;SDS011;5013;51.840;8.276;2023-01-08T01:14:16;3.67;;;3.47;;
9948;SDS011;5013;51.840;8.276;2023-01-08T01:16:41;3.47;;;3.27;;
9948;SDS011;5013;51.840;8.276;2023-01-08T01:19:08;3.30;;;3.17;;
9948;SDS011;5013;51.840;8.276;2023-01-08T01:21:34;3.63;;;3.43;;
9948;SDS011;5013;51.840;8.276;2023-01-08T01:24:03;3.43;;;3.20;;
9948;SDS011;5013;51.840;8.276;2023-01-08T01:26:29;3.93;;;3.30;;
9948;SDS011;5013;51.840;8.276;2023-01-08T01:28:56;5.77;;;3.10;;
9948;SDS011;5013;51.840;8.276;2023-01-08T01:31:23;3.73;;;3.53;;
9948;SDS011;5013;51.840;8.276;2023-01-08T01:33:49;3.87;;;3.47;;
9948;SDS011;5013;51.840;8.276;2023-01-08T01:36:15;2.90;;;2.70;;
9948;SDS011;5013;51.840;8.276;2023-01-08T01:38:43;3.60;;;3.27;;
9948;SDS011;5013;51.840;8.276;2023-01-08T01:41:17;3.50;;;3.13;;
9948;SDS011;5013;51.840;8.276;2023-01-08T01:43:51;2.80;;;2.70;;
9948;SDS011;5013;51.840;8.276;2023-01-08T01:48:50;3.50;;;3.20;;
9948;SDS011;5013;51.840;8.276;2023-01-08T01:51:19;4.20;;;3.60;;
9948;SDS011;5013;51.840;8.276;2023-01-08T01:53:46;6.20;;;2.87;;
9948;SDS011;5013;51.840;8.276;2023-01-08T01:56:13;4.13;;;2.70;;
9948;SDS011;5013;51.840;8.276;2023-01-08T01:58:39;3.17;;;2.97;;
9948;SDS011;5013;51.840;8.276;2023-01-08T02:01:05;3.77;;;2.90;;
9948;SDS011;5013;51.840;8.276;2023-01-08T02:03:33;2.83;;;2.73;;
9948;SDS011;5013;51.840;8.276;2023-01-08T02:14:00;3.00;;;2.90;;
9948;SDS011;5013;51.840;8.276;2023-01-08T02:19:06;3.03;;;2.83;;
9948;SDS011;5013;51.840;8.276;2023-01-08T02:21:49;2.53;;;2.43;;
9948;SDS011;5013;51.840;8.276;2023-01-08T02:24:23;3.03;;;2.77;;
9948;SDS011;5013;51.840;8.276;2023-01-08T02:27:06;2.73;;;2.53;;
9948;SDS011;5013;51.840;8.276;2023-01-08T02:29:32;2.60;;;2.50;;
9948;SDS011;5013;51.840;8.276;2023-01-08T02:31:59;2.80;;;2.60;;
9948;SDS011;5013;51.840;8.276;2023-01-08T02:34:25;2.60;;;2.50;;
9948;SDS011;5013;51.840;8.276;2023-01-08T02:36:53;2.73;;;2.53;;
9948;SDS011;5013;51.840;8.276;2023-01-08T02:47:00;4.57;;;2.67;;
9948;SDS011;5013;51.840;8.276;2023-01-08T02:49:31;2.57;;;2.47;;
9948;SDS011;5013;51.840;8.276;2023-01-08T02:52:01;2.60;;;2.40;;
9948;SDS011;5013;51.840;8.276;2023-01-08T02:54:30;3.03;;;2.83;;
9948;SDS011;5013;51.840;8.276;2023-01-08T02:56:58;3.23;;;2.50;;
9948;SDS011;5013;51.840;8.276;2023-01-08T02:59:28;3.60;;;2.67;;
9948;SDS011;5013;51.840;8.276;2023-01-08T03:01:56;2.53;;;2.43;;
9948;SDS011;5013;51.840;8.276;2023-01-08T03:04:23;4.13;;;2.80;;
9948;SDS011;5013;51.840;8.276;2023-01-08T03:06:50;2.50;;;2.40;;
9948;SDS011;5013;51.840;8.276;2023-01-08T03:09:16;2.87;;;2.57;;
9948;SDS011;5013;51.840;8.276;2023-01-08T03:11:46;2.40;;;2.30;;
9948;SDS011;5013;51.840;8.276;2023-01-08T03:14:17;2.53;;;2.27;;
9948;SDS011;5013;51.840;8.276;2023-01-08T03:19:39;2.63;;;2.50;;
9948;SDS011;5013;51.840;8.276;2023-01-08T03:22:11;2.93;;;2.40;;
9948;SDS011;5013;51.840;8.276;2023-01-08T03:24:40;2.60;;;2.40;;
9948;SDS011;5013;51.840;8.276;2023-01-08T03:27:08;3.07;;;2.33;;
9948;SDS011;5013;51.840;8.276;2023-01-08T03:29:38;2.50;;;2.40;;
9948;SDS011;5013;51.840;8.276;2023-01-08T03:32:05;2.40;;;2.30;;
9948;SDS011;5013;51.840;8.276;2023-01-08T03:34:34;2.40;;;2.20;;
9948;SDS011;5013;51.840;8.276;2023-01-08T03:37:03;2.23;;;2.13;;
9948;SDS011;5013;51.840;8.276;2023-01-08T03:39:42;2.47;;;2.27;;
9948;SDS011;5013;51.840;8.276;2023-01-08T03:42:15;1.90;;;1.90;;
9948;SDS011;5013;51.840;8.276;2023-01-08T03:44:44;2.30;;;2.17;;
9948;SDS011;5013;51.840;8.276;2023-01-08T03:47:09;4.80;;;2.40;;
9948;SDS011;5013;51.840;8.276;2023-01-08T03:49:36;2.57;;;2.37;;
9948;SDS011;5013;51.840;8.276;2023-01-08T03:52:04;2.47;;;2.27;;
9948;SDS011;5013;51.840;8.276;2023-01-08T03:54:31;2.47;;;2.37;;
9948;SDS011;5013;51.840;8.276;2023-01-08T03:56:58;2.53;;;2.20;;
9948;SDS011;5013;51.840;8.276;2023-01-08T03:59:24;2.83;;;2.30;;
9948;SDS011;5013;51.840;8.276;2023-01-08T04:01:50;2.30;;;2.10;;
9948;SDS011;5013;51.840;8.276;2023-01-08T04:04:15;2.23;;;2.13;;
9948;SDS011;5013;51.840;8.276;2023-01-08T04:06:41;2.20;;;2.10;;
9948;SDS011;5013;51.840;8.276;2023-01-08T04:09:07;4.33;;;2.57;;
9948;SDS011;5013;51.840;8.276;2023-01-08T04:11:32;2.57;;;2.43;;
9948;SDS011;5013;51.840;8.276;2023-01-08T04:13:58;2.30;;;2.20;;
9948;SDS011;5013;51.840;8.276;2023-01-08T04:16:23;2.20;;;2.10;;
9948;SDS011;5013;51.840;8.276;2023-01-08T04:18:49;2.93;;;2.43;;
9948;SDS011;5013;51.840;8.276;2023-01-08T04:21:15;2.30;;;2.20;;
9948;SDS011;5013;51.840;8.276;2023-01-08T04:23:40;3.43;;;2.37;;
9948;SDS011;5013;51.840;8.276;2023-01-08T04:26:06;2.00;;;2.00;;
9948;SDS011;5013;51.840;8.276;2023-01-08T04:28:32;2.27;;;2.17;;
9948;SDS011;5013;51.840;8.276;2023-01-08T04:30:58;2.30;;;2.10;;
9948;SDS011;5013;51.840;8.276;2023-01-08T04:33:24;2.83;;;2.10;;
9948;SDS011;5013;51.840;8.276;2023-01-08T04:35:49;2.83;;;2.37;;
9948;SDS011;5013;51.840;8.276;2023-01-08T04:38:15;2.47;;;2.20;;
9948;SDS011;5013;51.840;8.276;2023-01-08T04:40:41;2.30;;;2.20;;
9948;SDS011;5013;51.840;8.276;2023-01-08T04:43:07;2.50;;;2.23;;
9948;SDS011;5013;51.840;8.276;2023-01-08T04:45:33;2.90;;;2.40;;
9948;SDS011;5013;51.840;8.276;2023-01-08T04:47:59;1.97;;;1.97;;
9948;SDS011;5013;51.840;8.276;2023-01-08T04:50:25;2.30;;;2.10;;
9948;SDS011;5013;51.840;8.276;2023-01-08T04:52:50;2.80;;;2.20;;
9948;SDS011;5013;51.840;8.276;2023-01-08T04:55:16;2.23;;;1.93;;
9948;SDS011;5013;51.840;8.276;2023-01-08T04:57:42;2.40;;;2.20;;
9948;SDS011;5013;51.840;8.276;2023-01-08T05:00:07;2.10;;;2.00;;
9948;SDS011;5013;51.840;8.276;2023-01-08T05:02:33;2.47;;;1.97;;
9948;SDS011;5013;51.840;8.276;2023-01-08T05:04:59;1.93;;;1.83;;
9948;SDS011;5013;51.840;8.276;2023-01-08T05:07:25;2.73;;;1.93;;
9948;SDS011;5013;51.840;8.276;2023-01-08T05:09:50;3.07;;;1.97;;
9948;SDS011;5013;51.840;8.276;2023-01-08T05:12:16;1.90;;;1.80;;
9948;SDS011;5013;51.840;8.276;2023-01-08T05:14:42;3.13;;;1.90;;
9948;SDS011;5013;51.840;8.276;2023-01-08T05:17:07;2.00;;;1.90;;
9948;SDS011;5013;51.840;8.276;2023-01-08T05:19:33;2.07;;;1.97;;
9948;SDS011;5013;51.840;8.276;2023-01-08T05:21:59;2.50;;;2.00;;
9948;SDS011;5013;51.840;8.276;2023-01-08T05:24:24;2.00;;;2.00;;
9948;SDS011;5013;51.840;8.276;2023-01-08T05:26:50;1.80;;;1.70;;
9948;SDS011;5013;51.840;8.276;2023-01-08T05:29:15;2.20;;;2.00;;
9948;SDS011;5013;51.840;8.276;2023-01-08T05:31:41;1.93;;;1.83;;
9948;SDS011;5013;51.840;8.276;2023-01-08T05:34:07;1.80;;;1.80;;
9948;SDS011;5013;51.840;8.276;2023-01-08T05:36:32;2.23;;;2.03;;
9948;SDS011;5013;51.840;8.276;2023-01-08T05:38:58;1.73;;;1.63;;
9948;SDS011;5013;51.840;8.276;2023-01-08T05:41:23;1.80;;;1.70;;
9948;SDS011;5013;51.840;8.276;2023-01-08T05:43:49;1.93;;;1.83;;
9948;SDS011;5013;51.840;8.276;2023-01-08T05:46:15;1.90;;;1.80;;
9948;SDS011;5013;51.840;8.276;2023-01-08T05:48:40;1.80;;;1.70;;
9948;SDS011;5013;51.840;8.276;2023-01-08T05:51:06;1.47;;;1.40;;
9948;SDS011;5013;51.840;8.276;2023-01-08T05:53:31;1.47;;;1.40;;
9948;SDS011;5013;51.840;8.276;2023-01-08T05:56:04;1.70;;;1.60;;
9948;SDS011;5013;51.840;8.276;2023-01-08T05:58:32;1.53;;;1.53;;
9948;SDS011;5013;51.840;8.276;2023-01-08T06:01:02;1.80;;;1.70;;
9948;SDS011;5013;51.840;8.276;2023-01-08T06:03:32;1.40;;;1.40;;
9948;SDS011;5013;51.840;8.276;2023-01-08T06:05:58;1.23;;;1.23;;
9948;SDS011;5013;51.840;8.276;2023-01-08T06:08:26;1.50;;;1.50;;
9948;SDS011;5013;51.840;8.276;2023-01-08T06:10:52;1.50;;;1.40;;
9948;SDS011;5013;51.840;8.276;2023-01-08T06:13:18;1.50;;;1.40;;
9948;SDS011;5013;51.840;8.276;2023-01-08T06:15:43;1.33;;;1.33;;
9948;SDS011;5013;51.840;8.276;2023-01-08T06:18:09;3.13;;;1.47;;
9948;SDS011;5013;51.840;8.276;2023-01-08T06:20:34;1.57;;;1.47;;
9948;SDS011;5013;51.840;8.276;2023-01-08T06:23:00;1.43;;;1.43;;
9948;SDS011;5013;51.840;8.276;2023-01-08T06:25:26;1.40;;;1.40;;
9948;SDS011;5013;51.840;8.276;2023-01-08T06:27:53;1.53;;;1.43;;
9948;SDS011;5013;51.840;8.276;2023-01-08T06:30:19;1.40;;;1.40;;
9948;SDS011;5013;51.840;8.276;2023-01-08T06:32:44;1.43;;;1.40;;
9948;SDS011;5013;51.840;8.276;2023-01-08T06:35:10;1.30;;;1.30;;
9948;SDS011;5013;51.840;8.276;2023-01-08T06:37:35;1.10;;;1.10;;
9948;SDS011;5013;51.840;8.276;2023-01-08T06:40:01;1.20;;;1.20;;
9948;SDS011;5013;51.840;8.276;2023-01-08T06:42:26;1.20;;;1.20;;
9948;SDS011;5013;51.840;8.276;2023-01-08T06:44:52;2.13;;;1.30;;
9948;SDS011;5013;51.840;8.276;2023-01-08T06:47:17;1.30;;;1.20;;
9948;SDS011;5013;51.840;8.276;2023-01-08T06:49:43;1.27;;;1.27;;
9948;SDS011;5013;51.840;8.276;2023-01-08T06:52:09;1.70;;;1.60;;
9948;SDS011;5013;51.840;8.276;2023-01-08T06:54:34;1.20;;;1.20;;
9948;SDS011;5013;51.840;8.276;2023-01-08T06:57:00;1.20;;;1.20;;
9948;SDS011;5013;51.840;8.276;2023-01-08T06:59:26;1.20;;;1.20;;
9948;SDS011;5013;51.840;8.276;2023-01-08T07:01:51;1.00;;;1.00;;
9948;SDS011;5013;51.840;8.276;2023-01-08T07:04:17;0.83;;;0.83;;
9948;SDS011;5013;51.840;8.276;2023-01-08T07:06:43;0.93;;;0.93;;
9948;SDS011;5013;51.840;8.276;2023-01-08T07:09:12;1.00;;;1.00;;
9948;SDS011;5013;51.840;8.276;2023-01-08T07:11:39;1.27;;;1.27;;
9948;SDS011;5013;51.840;8.276;2023-01-08T07:14:05;0.90;;;0.90;;
9948;SDS011;5013;51.840;8.276;2023-01-08T07:16:31;1.20;;;1.20;;
9948;SDS011;5013;51.840;8.276;2023-01-08T07:18:57;0.93;;;0.93;;
9948;SDS011;5013;51.840;8.276;2023-01-08T07:21:23;1.00;;;1.00;;
9948;SDS011;5013;51.840;8.276;2023-01-08T07:23:48;1.00;;;1.00;;
9948;SDS011;5013;51.840;8.276;2023-01-08T07:26:14;1.00;;;1.00;;
9948;SDS011;5013;51.840;8.276;2023-01-08T07:28:40;1.00;;;1.00;;
9948;SDS011;5013;51.840;8.276;2023-01-08T07:31:06;1.10;;;1.10;;
9948;SDS011;5013;51.840;8.276;2023-01-08T07:33:32;1.10;;;1.07;;
9948;SDS011;5013;51.840;8.276;2023-01-08T07:35:58;1.10;;;1.10;;
9948;SDS011;5013;51.840;8.276;2023-01-08T07:38:24;1.20;;;1.20;;
9948;SDS011;5013;51.840;8.276;2023-01-08T07:40:50;1.10;;;1.00;;
9948;SDS011;5013;51.840;8.276;2023-01-08T07:43:16;1.37;;;1.27;;
9948;SDS011;5013;51.840;8.276;2023-01-08T07:45:41;1.10;;;1.10;;
9948;SDS011;5013;51.840;8.276;2023-01-08T07:48:07;1.20;;;1.20;;
9948;SDS011;5013;51.840;8.276;2023-01-08T07:50:35;1.00;;;1.00;;
9948;SDS011;5013;51.840;8.276;2023-01-08T07:53:01;1.90;;;1.00;;
9948;SDS011;5013;51.840;8.276;2023-01-08T07:55:27;0.80;;;0.80;;
9948;SDS011;5013;51.840;8.276;2023-01-08T07:57:54;1.00;;;1.00;;
9948;SDS011;5013;51.840;8.276;2023-01-08T08:00:20;0.90;;;0.90;;
9948;SDS011;5013;51.840;8.276;2023-01-08T08:02:46;1.00;;;1.00;;
9948;SDS011;5013;51.840;8.276;2023-01-08T08:05:12;0.93;;;0.93;;
9948;SDS011;5013;51.840;8.276;2023-01-08T08:07:38;0.97;;;0.97;;
9948;SDS011;5013;51.840;8.276;2023-01-08T08:10:03;1.00;;;1.00;;
9948;SDS011;5013;51.840;8.276;2023-01-08T08:12:29;3.07;;;0.93;;
9948;SDS011;5013;51.840;8.276;2023-01-08T08:14:55;2.00;;;1.50;;
9948;SDS011;5013;51.840;8.276;2023-01-08T08:17:21;2.43;;;1.30;;
9948;SDS011;5013;51.840;8.276;2023-01-08T08:19:46;2.43;;;1.40;;
9948;SDS011;5013;51.840;8.276;2023-01-08T08:22:12;1.00;;;1.00;;
9948;SDS011;5013;51.840;8.276;2023-01-08T08:24:37;1.40;;;1.30;;
9948;SDS011;5013;51.840;8.276;2023-01-08T08:27:03;2.70;;;1.10;;
9948;SDS011;5013;51.840;8.276;2023-01-08T08:29:29;2.30;;;1.10;;
9948;SDS011;5013;51.840;8.276;2023-01-08T08:31:54;1.40;;;1.30;;
9948;SDS011;5013;51.840;8.276;2023-01-08T08:34:20;0.90;;;0.90;;
9948;SDS011;5013;51.840;8.276;2023-01-08T08:36:46;1.13;;;1.13;;
9948;SDS011;5013;51.840;8.276;2023-01-08T08:39:12;1.07;;;1.07;;
9948;SDS011;5013;51.840;8.276;2023-01-08T08:41:38;1.10;;;1.10;;
9948;SDS011;5013;51.840;8.276;2023-01-08T08:44:04;2.73;;;1.63;;
9948;SDS011;5013;51.840;8.276;2023-01-08T08:46:29;2.73;;;1.90;;
9948;SDS011;5013;51.840;8.276;2023-01-08T08:48:55;1.00;;;1.00;;
9948;SDS011;5013;51.840;8.276;2023-01-08T08:51:21;1.30;;;1.30;;
9948;SDS011;5013;51.840;8.276;2023-01-08T08:53:46;1.70;;;1.60;;
9948;SDS011;5013;51.840;8.276;2023-01-08T08:56:12;1.60;;;1.60;;
9948;SDS011;5013;51.840;8.276;2023-01-08T08:58:38;1.17;;;1.17;;
9948;SDS011;5013;51.840;8.276;2023-01-08T09:01:05;1.30;;;1.20;;
9948;SDS011;5013;51.840;8.276;2023-01-08T09:03:32;1.53;;;1.43;;
9948;SDS011;5013;51.840;8.276;2023-01-08T09:05:58;1.67;;;1.57;;
9948;SDS011;5013;51.840;8.276;2023-01-08T09:08:24;1.40;;;1.20;;
9948;SDS011;5013;51.840;8.276;2023-01-08T09:10:49;1.20;;;1.20;;
9948;SDS011;5013;51.840;8.276;2023-01-08T09:13:15;1.40;;;1.40;;
9948;SDS011;5013;51.840;8.276;2023-01-08T09:15:41;1.60;;;1.50;;
9948;SDS011;5013;51.840;8.276;2023-01-08T09:18:06;1.73;;;1.63;;
9948;SDS011;5013;51.840;8.276;2023-01-08T09:20:32;1.30;;;1.20;;
9948;SDS011;5013;51.840;8.276;2023-01-08T09:22:58;1.23;;;1.10;;
9948;SDS011;5013;51.840;8.276;2023-01-08T09:25:24;1.17;;;0.97;;
9948;SDS011;5013;51.840;8.276;2023-01-08T09:30:25;0.70;;;0.70;;
9948;SDS011;5013;51.840;8.276;2023-01-08T09:32:54;0.90;;;0.90;;
9948;SDS011;5013;51.840;8.276;2023-01-08T09:35:21;0.63;;;0.63;;
9948;SDS011;5013;51.840;8.276;2023-01-08T09:37:49;0.77;;;0.77;;
9948;SDS011;5013;51.840;8.276;2023-01-08T09:40:18;1.50;;;0.90;;
9948;SDS011;5013;51.840;8.276;2023-01-08T09:42:47;0.80;;;0.80;;
9948;SDS011;5013;51.840;8.276;2023-01-08T09:45:23;1.03;;;0.80;;
9948;SDS011;5013;51.840;8.276;2023-01-08T09:47:51;1.10;;;0.87;;
9948;SDS011;5013;51.840;8.276;2023-01-08T09:50:18;0.80;;;0.80;;
9948;SDS011;5013;51.840;8.276;2023-01-08T09:52:46;1.00;;;1.00;;
9948;SDS011;5013;51.840;8.276;2023-01-08T09:55:12;4.37;;;2.00;;
9948;SDS011;5013;51.840;8.276;2023-01-08T09:57:39;1.40;;;1.40;;
9948;SDS011;5013;51.840;8.276;2023-01-08T10:00:16;0.90;;;0.90;;
9948;SDS011;5013;51.840;8.276;2023-01-08T10:02:51;3.60;;;1.20;;
9948;SDS011;5013;51.840;8.276;2023-01-08T10:05:18;1.80;;;1.20;;
9948;SDS011;5013;51.840;8.276;2023-01-08T10:07:44;1.27;;;1.17;;
9948;SDS011;5013;51.840;8.276;2023-01-08T10:10:21;9.70;;;6.40;;
9948;SDS011;5013;51.840;8.276;2023-01-08T10:12:50;4.07;;;3.67;;
9948;SDS011;5013;51.840;8.276;2023-01-08T10:15:17;3.30;;;1.60;;
9948;SDS011;5013;51.840;8.276;2023-01-08T10:20:29;3.10;;;1.13;;
9948;SDS011;5013;51.840;8.276;2023-01-08T10:22:55;2.60;;;1.10;;
9948;SDS011;5013;51.840;8.276;2023-01-08T10:25:50;3.80;;;1.30;;
9948;SDS011;5013;51.840;8.276;2023-01-08T10:28:22;4.50;;;1.33;;
9948;SDS011;5013;51.840;8.276;2023-01-08T10:31:05;3.80;;;1.10;;
9948;SDS011;5013;51.840;8.276;2023-01-08T10:33:38;5.93;;;1.10;;
9948;SDS011;5013;51.840;8.276;2023-01-08T10:36:10;2.20;;;1.30;;
9948;SDS011;5013;51.840;8.276;2023-01-08T10:41:24;2.00;;;1.30;;
9948;SDS011;5013;51.840;8.276;2023-01-08T10:43:55;3.23;;;1.10;;
9948;SDS011;5013;51.840;8.276;2023-01-08T10:48:53;4.47;;;1.30;;
9948;SDS011;5013;51.840;8.276;2023-01-08T10:51:24;2.97;;;1.00;;
9948;SDS011;5013;51.840;8.276;2023-01-08T10:53:52;5.20;;;1.63;;
9948;SDS011;5013;51.840;8.276;2023-01-08T10:58:47;7.60;;;1.63;;
9948;SDS011;5013;51.840;8.276;2023-01-08T11:01:21;6.57;;;1.67;;
9948;SDS011;5013;51.840;8.276;2023-01-08T11:03:49;5.23;;;1.60;;
9948;SDS011;5013;51.840;8.276;2023-01-08T11:06:26;3.23;;;1.40;;
9948;SDS011;5013;51.840;8.276;2023-01-08T11:08:59;2.13;;;1.37;;
9948;SDS011;5013;51.840;8.276;2023-01-08T11:11:33;4.23;;;1.40;;
9948;SDS011;5013;51.840;8.276;2023-01-08T11:14:04;6.30;;;1.40;;
9948;SDS011;5013;51.840;8.276;2023-01-08T11:16:39;6.27;;;1.57;;
9948;SDS011;5013;51.840;8.276;2023-01-08T11:19:14;3.43;;;1.53;;
9948;SDS011;5013;51.840;8.276;2023-01-08T11:21:41;8.27;;;1.77;;
9948;SDS011;5013;51.840;8.276;2023-01-08T11:27:05;3.20;;;1.50;;
9948;SDS011;5013;51.840;8.276;2023-01-08T11:30:10;6.43;;;1.63;;
9948;SDS011;5013;51.840;8.276;2023-01-08T11:32:50;3.40;;;1.33;;
9948;SDS011;5013;51.840;8.276;2023-01-08T11:35:25;8.17;;;2.17;;
9948;SDS011;5013;51.840;8.276;2023-01-08T11:37:57;5.23;;;1.87;;
9948;SDS011;5013;51.840;8.276;2023-01-08T11:43:41;6.90;;;1.80;;
9948;SDS011;5013;51.840;8.276;2023-01-08T11:46:29;8.43;;;2.40;;
9948;SDS011;5013;51.840;8.276;2023-01-08T11:49:28;7.63;;;2.23;;
9948;SDS011;5013;51.840;8.276;2023-01-08T12:03:01;8.03;;;2.13;;
9948;SDS011;5013;51.840;8.276;2023-01-08T12:05:49;10.50;;;2.07;;
9948;SDS011;5013;51.840;8.276;2023-01-08T12:11:09;6.30;;;1.80;;
9948;SDS011;5013;51.840;8.276;2023-01-08T12:22:22;3.43;;;1.40;;
9948;SDS011;5013;51.840;8.276;2023-01-08T12:25:01;3.43;;;1.40;;
9948;SDS011;5013;51.840;8.276;2023-01-08T12:30:45;6.33;;;1.40;;
9948;SDS011;5013;51.840;8.276;2023-01-08T12:35:52;1.77;;;1.30;;
9948;SDS011;5013;51.840;8.276;2023-01-08T12:38:25;2.50;;;1.50;;
9948;SDS011;5013;51.840;8.276;2023-01-08T12:40:58;1.50;;;1.27;;
9948;SDS011;5013;51.840;8.276;2023-01-08T12:44:04;2.53;;;1.40;;
9948;SDS011;5013;51.840;8.276;2023-01-08T12:46:30;2.43;;;1.13;;
9948;SDS011;5013;51.840;8.276;2023-01-08T12:48:58;2.20;;;1.30;;
9948;SDS011;5013;51.840;8.276;2023-01-08T13:04:47;0.80;;;0.80;;
9948;SDS011;5013;51.840;8.276;2023-01-08T13:07:20;2.17;;;1.00;;
9948;SDS011;5013;51.840;8.276;2023-01-08T13:09:54;4.07;;;1.40;;
9948;SDS011;5013;51.840;8.276;2023-01-08T13:12:24;1.67;;;1.00;;
9948;SDS011;5013;51.840;8.276;2023-01-08T13:14:58;1.80;;;1.40;;
9948;SDS011;5013;51.840;8.276;2023-01-08T13:17:24;1.13;;;1.10;;
9948;SDS011;5013;51.840;8.276;2023-01-08T13:19:52;1.40;;;0.93;;
9948;SDS011;5013;51.840;8.276;2023-01-08T13:22:24;1.20;;;1.20;;
9948;SDS011;5013;51.840;8.276;2023-01-08T13:25:06;3.40;;;1.10;;
9948;SDS011;5013;51.840;8.276;2023-01-08T13:27:32;1.97;;;0.93;;
9948;SDS011;5013;51.840;8.276;2023-01-08T13:29:58;1.93;;;1.00;;
9948;SDS011;5013;51.840;8.276;2023-01-08T13:37:48;1.03;;;1.00;;
9948;SDS011;5013;51.840;8.276;2023-01-08T13:40:34;1.77;;;1.00;;
9948;SDS011;5013;51.840;8.276;2023-01-08T13:43:01;2.83;;;1.50;;
9948;SDS011;5013;51.840;8.276;2023-01-08T13:45:29;6.47;;;1.20;;
9948;SDS011;5013;51.840;8.276;2023-01-08T13:47:55;2.53;;;1.20;;
9948;SDS011;5013;51.840;8.276;2023-01-08T13:50:22;1.57;;;1.20;;
9948;SDS011;5013;51.840;8.276;2023-01-08T13:52:55;1.17;;;0.90;;
9948;SDS011;5013;51.840;8.276;2023-01-08T13:55:29;1.43;;;1.20;;
9948;SDS011;5013;51.840;8.276;2023-01-08T13:58:01;1.07;;;1.07;;
9948;SDS011;5013;51.840;8.276;2023-01-08T14:00:57;0.97;;;0.97;;
9948;SDS011;5013;51.840;8.276;2023-01-08T14:03:25;1.33;;;0.90;;
9948;SDS011;5013;51.840;8.276;2023-01-08T14:08:30;0.93;;;0.80;;
9948;SDS011;5013;51.840;8.276;2023-01-08T14:10:56;1.00;;;1.00;;
9948;SDS011;5013;51.840;8.276;2023-01-08T14:13:28;0.90;;;0.90;;
9948;SDS011;5013;51.840;8.276;2023-01-08T14:15:56;1.97;;;0.97;;
9948;SDS011;5013;51.840;8.276;2023-01-08T14:18:24;1.00;;;0.90;;
9948;SDS011;5013;51.840;8.276;2023-01-08T14:20:52;2.00;;;1.00;;
9948;SDS011;5013;51.840;8.276;2023-01-08T14:23:29;0.67;;;0.67;;
9948;SDS011;5013;51.840;8.276;2023-01-08T14:26:01;2.13;;;1.27;;
9948;SDS011;5013;51.840;8.276;2023-01-08T14:28:35;0.90;;;0.90;;
9948;SDS011;5013;51.840;8.276;2023-01-08T14:31:00;1.10;;;1.10;;
9948;SDS011;5013;51.840;8.276;2023-01-08T14:33:31;0.80;;;0.80;;
9948;SDS011;5013;51.840;8.276;2023-01-08T14:35:59;1.40;;;0.90;;
9948;SDS011;5013;51.840;8.276;2023-01-08T14:38:26;0.90;;;0.90;;
9948;SDS011;5013;51.840;8.276;2023-01-08T14:40:59;0.83;;;0.80;;
9948;SDS011;5013;51.840;8.276;2023-01-08T14:43:34;0.70;;;0.70;;
9948;SDS011;5013;51.840;8.276;2023-01-08T14:46:10;0.90;;;0.90;;
9948;SDS011;5013;51.840;8.276;2023-01-08T14:48:44;1.80;;;0.70;;
9948;SDS011;5013;51.840;8.276;2023-01-08T14:51:12;0.77;;;0.63;;
9948;SDS011;5013;51.840;8.276;2023-01-08T14:53:43;0.87;;;0.87;;
9948;SDS011;5013;51.840;8.276;2023-01-08T14:56:11;0.93;;;0.70;;
9948;SDS011;5013;51.840;8.276;2023-01-08T14:58:39;0.77;;;0.77;;
9948;SDS011;5013;51.840;8.276;2023-01-08T15:01:14;0.53;;;0.53;;
9948;SDS011;5013;51.840;8.276;2023-01-08T15:03:44;0.83;;;0.60;;
9948;SDS011;5013;51.840;8.276;2023-01-08T15:06:11;0.50;;;0.50;;
9948;SDS011;5013;51.840;8.276;2023-01-08T15:08:47;0.80;;;0.80;;
9948;SDS011;5013;51.840;8.276;2023-01-08T15:11:23;0.40;;;0.40;;
9948;SDS011;5013;51.840;8.276;2023-01-08T15:13:54;0.60;;;0.60;;
9948;SDS011;5013;51.840;8.276;2023-01-08T15:16:26;0.50;;;0.50;;
9948;SDS011;5013;51.840;8.276;2023-01-08T15:19:38;0.50;;;0.50;;
9948;SDS011;5013;51.840;8.276;2023-01-08T15:21:50;0.50;;;0.50;;
9948;SDS011;5013;51.840;8.276;2023-01-08T15:24:26;0.50;;;0.50;;
9948;SDS011;5013;51.840;8.276;2023-01-08T15:26:55;0.60;;;0.60;;
9948;SDS011;5013;51.840;8.276;2023-01-08T15:29:22;1.10;;;0.70;;
9948;SDS011;5013;51.840;8.276;2023-01-08T15:32:07;0.40;;;0.40;;
9948;SDS011;5013;51.840;8.276;2023-01-08T15:34:34;0.90;;;0.70;;
9948;SDS011;5013;51.840;8.276;2023-01-08T15:36:59;0.57;;;0.53;;
9948;SDS011;5013;51.840;8.276;2023-01-08T15:39:25;0.60;;;0.60;;
9948;SDS011;5013;51.840;8.276;2023-01-08T15:41:50;2.40;;;2.30;;
9948;SDS011;5013;51.840;8.276;2023-01-08T15:44:34;1.20;;;1.20;;
9948;SDS011;5013;51.840;8.276;2023-01-08T15:47:00;1.20;;;1.00;;
9948;SDS011;5013;51.840;8.276;2023-01-08T15:49:25;0.80;;;0.80;;
9948;SDS011;5013;51.840;8.276;2023-01-08T15:51:51;1.40;;;0.87;;
9948;SDS011;5013;51.840;8.276;2023-01-08T15:54:17;0.80;;;0.80;;
9948;SDS011;5013;51.840;8.276;2023-01-08T15:56:45;1.03;;;0.90;;
9948;SDS011;5013;51.840;8.276;2023-01-08T15:59:10;0.90;;;0.90;;
9948;SDS011;5013;51.840;8.276;2023-01-08T16:01:36;3.90;;;1.30;;
9948;SDS011;5013;51.840;8.276;2023-01-08T16:04:02;3.10;;;0.93;;
9948;SDS011;5013;51.840;8.276;2023-01-08T16:06:28;1.80;;;0.80;;
9948;SDS011;5013;51.840;8.276;2023-01-08T16:08:53;0.70;;;0.70;;
9948;SDS011;5013;51.840;8.276;2023-01-08T16:11:23;1.20;;;1.20;;
9948;SDS011;5013;51.840;8.276;2023-01-08T16:13:49;2.00;;;1.30;;
9948;SDS011;5013;51.840;8.276;2023-01-08T16:16:14;1.60;;;1.50;;
9948;SDS011;5013;51.840;8.276;2023-01-08T16:18:40;1.37;;;1.37;;
9948;SDS011;5013;51.840;8.276;2023-01-08T16:21:06;2.63;;;1.10;;
9948;SDS011;5013;51.840;8.276;2023-01-08T16:23:33;1.40;;;1.40;;
9948;SDS011;5013;51.840;8.276;2023-01-08T16:26:10;2.27;;;1.83;;
9948;SDS011;5013;51.840;8.276;2023-01-08T16:28:37;2.10;;;2.00;;
9948;SDS011;5013;51.840;8.276;2023-01-08T16:31:04;2.67;;;1.47;;
9948;SDS011;5013;51.840;8.276;2023-01-08T16:33:30;1.50;;;1.40;;
9948;SDS011;5013;51.840;8.276;2023-01-08T16:36:00;2.90;;;2.70;;
9948;SDS011;5013;51.840;8.276;2023-01-08T16:38:27;1.77;;;1.73;;
9948;SDS011;5013;51.840;8.276;2023-01-08T16:40:53;1.83;;;1.20;;
9948;SDS011;5013;51.840;8.276;2023-01-08T16:43:20;1.50;;;1.40;;
9948;SDS011;5013;51.840;8.276;2023-01-08T16:45:47;4.47;;;1.93;;
9948;SDS011;5013;51.840;8.276;2023-01-08T16:48:13;1.70;;;1.60;;
9948;SDS011;5013;51.840;8.276;2023-01-08T16:50:39;1.80;;;1.70;;
9948;SDS011;5013;51.840;8.276;2023-01-08T16:53:06;1.70;;;1.70;;
9948;SDS011;5013;51.840;8.276;2023-01-08T16:55:32;2.07;;;1.97;;